sensor_id;sensor_type;location;lat;lon;timestamp;P1;durP1;ratioP1;P2;durP2;ratioP2
18695;SDS011;22617;43.690;27.956;2022-09-03T00:02:59;3.30;;;2.20;;
18695;SDS011;22617;43.690;27.956;2022-09-03T00:08:09;2.25;;;1.50;;
18695;SDS011;22617;43.690;27.956;2022-09-03T00:13:19;2.60;;;1.52;;
18695;SDS011;22617;43.690;27.956;2022-09-03T00:18:26;4.90;;;2.10;;
18695;SDS011;22617;43.690;27.956;2022-09-03T00:23:34;3.57;;;1.67;;
18695;SDS011;22617;43.690;27.956;2022-09-03T00:28:44;4.70;;;1.90;;
18695;SDS011;22617;43.690;27.956;2022-09-03T00:33:49;3.08;;;2.00;;
18695;SDS011;22617;43.690;27.956;2022-09-03T00:38:59;4.40;;;2.10;;
18695;SDS011;22617;43.690;27.956;2022-09-03T00:49:49;4.90;;;2.38;;
18695;SDS011;22617;43.690;27.956;2022-09-03T00:55:08;3.38;;;2.20;;
18695;SDS011;22617;43.690;27.956;2022-09-03T01:00:19;3.88;;;2.20;;
18695;SDS011;22617;43.690;27.956;2022-09-03T01:05:30;4.25;;;2.13;;
18695;SDS011;22617;43.690;27.956;2022-09-03T01:10:51;6.88;;;2.72;;
18695;SDS011;22617;43.690;27.956;2022-09-03T01:16:03;3.88;;;2.95;;
18695;SDS011;22617;43.690;27.956;2022-09-03T01:21:22;6.50;;;3.00;;
18695;SDS011;22617;43.690;27.956;2022-09-03T01:26:45;4.38;;;2.95;;
18695;SDS011;22617;43.690;27.956;2022-09-03T01:32:05;5.10;;;3.03;;
18695;SDS011;22617;43.690;27.956;2022-09-03T01:37:15;5.40;;;2.87;;
18695;SDS011;22617;43.690;27.956;2022-09-03T01:42:28;6.22;;;2.97;;
18695;SDS011;22617;43.690;27.956;2022-09-03T01:47:48;8.45;;;3.53;;
18695;SDS011;22617;43.690;27.956;2022-09-03T01:53:01;8.57;;;3.65;;
18695;SDS011;22617;43.690;27.956;2022-09-03T01:58:10;6.97;;;3.93;;
18695;SDS011;22617;43.690;27.956;2022-09-03T02:03:21;10.73;;;4.22;;
18695;SDS011;22617;43.690;27.956;2022-09-03T02:08:26;8.47;;;4.47;;
18695;SDS011;22617;43.690;27.956;2022-09-03T02:13:30;6.03;;;4.20;;
18695;SDS011;22617;43.690;27.956;2022-09-03T02:18:40;8.97;;;4.50;;
18695;SDS011;22617;43.690;27.956;2022-09-03T02:23:47;7.70;;;5.10;;
18695;SDS011;22617;43.690;27.956;2022-09-03T02:28:52;9.47;;;5.17;;
18695;SDS011;22617;43.690;27.956;2022-09-03T02:33:57;10.95;;;5.70;;
18695;SDS011;22617;43.690;27.956;2022-09-03T02:39:01;9.68;;;5.68;;
18695;SDS011;22617;43.690;27.956;2022-09-03T02:44:06;8.43;;;6.03;;
18695;SDS011;22617;43.690;27.956;2022-09-03T02:49:16;10.23;;;5.70;;
18695;SDS011;22617;43.690;27.956;2022-09-03T02:54:20;11.18;;;6.18;;
18695;SDS011;22617;43.690;27.956;2022-09-03T02:59:23;8.80;;;5.80;;
18695;SDS011;22617;43.690;27.956;2022-09-03T03:04:30;11.45;;;6.28;;
18695;SDS011;22617;43.690;27.956;2022-09-03T03:09:34;10.30;;;5.72;;
18695;SDS011;22617;43.690;27.956;2022-09-03T03:14:38;10.57;;;5.80;;
18695;SDS011;22617;43.690;27.956;2022-09-03T03:19:43;10.13;;;5.87;;
18695;SDS011;22617;43.690;27.956;2022-09-03T03:24:46;9.57;;;6.60;;
18695;SDS011;22617;43.690;27.956;2022-09-03T03:29:51;10.20;;;6.80;;
18695;SDS011;22617;43.690;27.956;2022-09-03T03:34:56;10.43;;;6.38;;
18695;SDS011;22617;43.690;27.956;2022-09-03T03:40:00;13.23;;;7.37;;
18695;SDS011;22617;43.690;27.956;2022-09-03T03:45:04;15.40;;;6.80;;
18695;SDS011;22617;43.690;27.956;2022-09-03T03:50:10;15.18;;;7.18;;
18695;SDS011;22617;43.690;27.956;2022-09-03T03:55:13;12.57;;;7.10;;
18695;SDS011;22617;43.690;27.956;2022-09-03T04:00:17;15.80;;;7.33;;
18695;SDS011;22617;43.690;27.956;2022-09-03T04:05:22;11.20;;;6.40;;
18695;SDS011;22617;43.690;27.956;2022-09-03T04:10:27;13.90;;;6.47;;
18695;SDS011;22617;43.690;27.956;2022-09-03T04:15:31;10.90;;;7.03;;
18695;SDS011;22617;43.690;27.956;2022-09-03T04:20:36;11.03;;;6.73;;
18695;SDS011;22617;43.690;27.956;2022-09-03T04:25:39;13.63;;;7.63;;
18695;SDS011;22617;43.690;27.956;2022-09-03T04:30:43;11.83;;;8.13;;
18695;SDS011;22617;43.690;27.956;2022-09-03T04:35:51;13.83;;;8.53;;
18695;SDS011;22617;43.690;27.956;2022-09-03T04:40:54;21.37;;;9.13;;
18695;SDS011;22617;43.690;27.956;2022-09-03T04:45:58;16.13;;;9.40;;
18695;SDS011;22617;43.690;27.956;2022-09-03T04:51:05;15.10;;;8.57;;
18695;SDS011;22617;43.690;27.956;2022-09-03T04:56:11;12.77;;;8.40;;
18695;SDS011;22617;43.690;27.956;2022-09-03T05:01:17;17.63;;;8.30;;
18695;SDS011;22617;43.690;27.956;2022-09-03T05:06:23;16.30;;;8.30;;
18695;SDS011;22617;43.690;27.956;2022-09-03T05:11:27;14.97;;;7.70;;
18695;SDS011;22617;43.690;27.956;2022-09-03T05:16:31;16.88;;;8.02;;
18695;SDS011;22617;43.690;27.956;2022-09-03T05:21:36;14.53;;;7.70;;
18695;SDS011;22617;43.690;27.956;2022-09-03T05:26:40;14.63;;;8.00;;
18695;SDS011;22617;43.690;27.956;2022-09-03T05:31:43;15.53;;;7.57;;
18695;SDS011;22617;43.690;27.956;2022-09-03T05:36:48;13.20;;;8.10;;
18695;SDS011;22617;43.690;27.956;2022-09-03T05:41:53;19.03;;;8.30;;
18695;SDS011;22617;43.690;27.956;2022-09-03T05:46:57;14.30;;;7.90;;
18695;SDS011;22617;43.690;27.956;2022-09-03T05:52:02;14.85;;;8.70;;
18695;SDS011;22617;43.690;27.956;2022-09-03T05:57:06;21.97;;;9.60;;
18695;SDS011;22617;43.690;27.956;2022-09-03T06:02:09;19.20;;;9.23;;
18695;SDS011;22617;43.690;27.956;2022-09-03T06:07:16;16.23;;;8.80;;
18695;SDS011;22617;43.690;27.956;2022-09-03T06:12:19;15.10;;;9.57;;
18695;SDS011;22617;43.690;27.956;2022-09-03T06:17:23;18.07;;;9.57;;
18695;SDS011;22617;43.690;27.956;2022-09-03T06:22:28;17.67;;;9.50;;
18695;SDS011;22617;43.690;27.956;2022-09-03T06:27:32;18.70;;;9.87;;
18695;SDS011;22617;43.690;27.956;2022-09-03T06:32:42;21.35;;;10.98;;
18695;SDS011;22617;43.690;27.956;2022-09-03T06:37:47;20.43;;;11.40;;
18695;SDS011;22617;43.690;27.956;2022-09-03T06:42:55;23.60;;;12.27;;
18695;SDS011;22617;43.690;27.956;2022-09-03T06:48:01;22.50;;;11.93;;
18695;SDS011;22617;43.690;27.956;2022-09-03T06:53:07;21.88;;;11.48;;
18695;SDS011;22617;43.690;27.956;2022-09-03T06:58:11;26.07;;;12.67;;
18695;SDS011;22617;43.690;27.956;2022-09-03T07:03:15;20.83;;;13.17;;
18695;SDS011;22617;43.690;27.956;2022-09-03T07:08:21;20.90;;;12.80;;
18695;SDS011;22617;43.690;27.956;2022-09-03T07:13:25;21.47;;;13.17;;
18695;SDS011;22617;43.690;27.956;2022-09-03T07:18:28;23.93;;;13.27;;
18695;SDS011;22617;43.690;27.956;2022-09-03T07:23:34;23.60;;;14.20;;
18695;SDS011;22617;43.690;27.956;2022-09-03T07:28:39;24.10;;;13.83;;
18695;SDS011;22617;43.690;27.956;2022-09-03T07:33:44;16.57;;;12.13;;
18695;SDS011;22617;43.690;27.956;2022-09-03T07:38:49;19.87;;;12.30;;
18695;SDS011;22617;43.690;27.956;2022-09-03T07:43:53;18.83;;;11.10;;
18695;SDS011;22617;43.690;27.956;2022-09-03T07:48:57;16.40;;;11.10;;
18695;SDS011;22617;43.690;27.956;2022-09-03T07:54:05;19.33;;;10.33;;
18695;SDS011;22617;43.690;27.956;2022-09-03T07:59:11;14.30;;;10.33;;
18695;SDS011;22617;43.690;27.956;2022-09-03T08:04:15;13.50;;;9.83;;
18695;SDS011;22617;43.690;27.956;2022-09-03T08:09:20;17.57;;;9.90;;
18695;SDS011;22617;43.690;27.956;2022-09-03T08:14:23;13.30;;;9.43;;
18695;SDS011;22617;43.690;27.956;2022-09-03T08:19:27;15.17;;;9.10;;
18695;SDS011;22617;43.690;27.956;2022-09-03T08:24:32;16.20;;;9.30;;
18695;SDS011;22617;43.690;27.956;2022-09-03T08:29:36;11.03;;;8.23;;
18695;SDS011;22617;43.690;27.956;2022-09-03T08:34:40;13.43;;;7.80;;
18695;SDS011;22617;43.690;27.956;2022-09-03T08:39:45;11.97;;;7.80;;
18695;SDS011;22617;43.690;27.956;2022-09-03T08:44:49;14.00;;;7.97;;
18695;SDS011;22617;43.690;27.956;2022-09-03T08:49:57;8.50;;;7.10;;
18695;SDS011;22617;43.690;27.956;2022-09-03T08:55:16;9.70;;;5.90;;
18695;SDS011;22617;43.690;27.956;2022-09-03T09:00:25;6.23;;;5.27;;
18695;SDS011;22617;43.690;27.956;2022-09-03T09:05:40;9.13;;;5.57;;
18695;SDS011;22617;43.690;27.956;2022-09-03T09:10:56;5.10;;;3.70;;
18695;SDS011;22617;43.690;27.956;2022-09-03T09:16:08;2.93;;;2.00;;
18695;SDS011;22617;43.690;27.956;2022-09-03T09:21:22;2.30;;;1.00;;
18695;SDS011;22617;43.690;27.956;2022-09-03T09:26:31;0.80;;;0.80;;
18695;SDS011;22617;43.690;27.956;2022-09-03T09:31:36;1.50;;;1.00;;
18695;SDS011;22617;43.690;27.956;2022-09-03T09:36:41;1.40;;;1.30;;
18695;SDS011;22617;43.690;27.956;2022-09-03T09:42:00;2.13;;;1.60;;
18695;SDS011;22617;43.690;27.956;2022-09-03T09:47:10;2.33;;;2.13;;
18695;SDS011;22617;43.690;27.956;2022-09-03T09:52:18;6.23;;;3.80;;
18695;SDS011;22617;43.690;27.956;2022-09-03T09:57:27;5.07;;;3.70;;
18695;SDS011;22617;43.690;27.956;2022-09-03T10:02:33;4.40;;;3.03;;
18695;SDS011;22617;43.690;27.956;2022-09-03T10:07:38;2.87;;;2.57;;
18695;SDS011;22617;43.690;27.956;2022-09-03T10:12:46;3.77;;;2.63;;
18695;SDS011;22617;43.690;27.956;2022-09-03T10:17:56;2.43;;;2.23;;
18695;SDS011;22617;43.690;27.956;2022-09-03T10:23:08;3.27;;;2.57;;
18695;SDS011;22617;43.690;27.956;2022-09-03T10:28:16;2.80;;;2.53;;
18695;SDS011;22617;43.690;27.956;2022-09-03T10:33:21;3.10;;;2.70;;
18695;SDS011;22617;43.690;27.956;2022-09-03T10:38:29;2.60;;;2.33;;
18695;SDS011;22617;43.690;27.956;2022-09-03T10:43:50;2.40;;;2.20;;
18695;SDS011;22617;43.690;27.956;2022-09-03T10:49:25;2.60;;;2.40;;
18695;SDS011;22617;43.690;27.956;2022-09-03T10:54:44;2.03;;;1.73;;
18695;SDS011;22617;43.690;27.956;2022-09-03T11:00:03;3.67;;;2.20;;
18695;SDS011;22617;43.690;27.956;2022-09-03T11:05:11;3.47;;;2.37;;
18695;SDS011;22617;43.690;27.956;2022-09-03T11:10:20;3.00;;;2.70;;
18695;SDS011;22617;43.690;27.956;2022-09-03T11:15:33;3.27;;;2.97;;
18695;SDS011;22617;43.690;27.956;2022-09-03T11:20:41;3.03;;;2.73;;
18695;SDS011;22617;43.690;27.956;2022-09-03T11:25:48;3.53;;;3.23;;
18695;SDS011;22617;43.690;27.956;2022-09-03T11:30:59;3.30;;;3.00;;
18695;SDS011;22617;43.690;27.956;2022-09-03T11:36:22;3.23;;;2.60;;
18695;SDS011;22617;43.690;27.956;2022-09-03T11:41:31;3.37;;;2.90;;
18695;SDS011;22617;43.690;27.956;2022-09-03T11:46:38;4.70;;;2.87;;
18695;SDS011;22617;43.690;27.956;2022-09-03T11:51:43;4.33;;;3.67;;
18695;SDS011;22617;43.690;27.956;2022-09-03T11:56:46;4.73;;;3.87;;
18695;SDS011;22617;43.690;27.956;2022-09-03T12:01:55;5.47;;;3.63;;
18695;SDS011;22617;43.690;27.956;2022-09-03T12:07:10;6.10;;;4.23;;
18695;SDS011;22617;43.690;27.956;2022-09-03T12:17:55;4.80;;;4.30;;
18695;SDS011;22617;43.690;27.956;2022-09-03T12:23:27;4.53;;;4.13;;
18695;SDS011;22617;43.690;27.956;2022-09-03T12:28:34;5.23;;;4.50;;
18695;SDS011;22617;43.690;27.956;2022-09-03T12:33:46;7.80;;;5.50;;
18695;SDS011;22617;43.690;27.956;2022-09-03T12:38:52;5.33;;;4.83;;
18695;SDS011;22617;43.690;27.956;2022-09-03T12:44:13;7.13;;;5.53;;
18695;SDS011;22617;43.690;27.956;2022-09-03T12:49:18;6.17;;;5.20;;
18695;SDS011;22617;43.690;27.956;2022-09-03T12:54:38;5.97;;;4.67;;
18695;SDS011;22617;43.690;27.956;2022-09-03T12:59:52;6.17;;;4.83;;
18695;SDS011;22617;43.690;27.956;2022-09-03T13:05:01;5.20;;;4.73;;
18695;SDS011;22617;43.690;27.956;2022-09-03T13:10:06;5.47;;;4.57;;
18695;SDS011;22617;43.690;27.956;2022-09-03T13:15:26;5.43;;;4.93;;
18695;SDS011;22617;43.690;27.956;2022-09-03T13:20:34;5.40;;;4.90;;
18695;SDS011;22617;43.690;27.956;2022-09-03T13:25:50;5.87;;;5.27;;
18695;SDS011;22617;43.690;27.956;2022-09-03T13:31:08;6.00;;;5.40;;
18695;SDS011;22617;43.690;27.956;2022-09-03T13:36:23;6.40;;;5.80;;
18695;SDS011;22617;43.690;27.956;2022-09-03T13:41:34;7.43;;;6.20;;
18695;SDS011;22617;43.690;27.956;2022-09-03T13:46:43;8.90;;;7.27;;
18695;SDS011;22617;43.690;27.956;2022-09-03T13:51:53;9.50;;;8.13;;
18695;SDS011;22617;43.690;27.956;2022-09-03T13:57:03;11.03;;;7.87;;
18695;SDS011;22617;43.690;27.956;2022-09-03T14:02:17;10.07;;;8.47;;
18695;SDS011;22617;43.690;27.956;2022-09-03T14:07:27;9.83;;;8.20;;
18695;SDS011;22617;43.690;27.956;2022-09-03T14:12:46;7.67;;;6.87;;
18695;SDS011;22617;43.690;27.956;2022-09-03T14:17:55;7.73;;;6.30;;
18695;SDS011;22617;43.690;27.956;2022-09-03T14:23:06;6.87;;;6.17;;
18695;SDS011;22617;43.690;27.956;2022-09-03T14:28:26;5.10;;;4.60;;
18695;SDS011;22617;43.690;27.956;2022-09-03T14:33:35;5.43;;;4.17;;
18695;SDS011;22617;43.690;27.956;2022-09-03T14:38:52;6.43;;;5.00;;
18695;SDS011;22617;43.690;27.956;2022-09-03T14:44:15;6.40;;;5.30;;
18695;SDS011;22617;43.690;27.956;2022-09-03T14:49:47;6.50;;;5.77;;
18695;SDS011;22617;43.690;27.956;2022-09-03T14:55:08;6.20;;;5.23;;
18695;SDS011;22617;43.690;27.956;2022-09-03T15:00:21;5.77;;;5.13;;
18695;SDS011;22617;43.690;27.956;2022-09-03T15:05:45;5.77;;;5.17;;
18695;SDS011;22617;43.690;27.956;2022-09-03T15:10:58;6.27;;;5.63;;
18695;SDS011;22617;43.690;27.956;2022-09-03T15:16:07;6.10;;;5.50;;
18695;SDS011;22617;43.690;27.956;2022-09-03T15:21:23;7.77;;;6.20;;
18695;SDS011;22617;43.690;27.956;2022-09-03T15:26:49;10.83;;;7.93;;
18695;SDS011;22617;43.690;27.956;2022-09-03T15:32:01;10.80;;;7.60;;
18695;SDS011;22617;43.690;27.956;2022-09-03T15:37:16;9.90;;;7.90;;
18695;SDS011;22617;43.690;27.956;2022-09-03T15:42:26;10.70;;;7.60;;
18695;SDS011;22617;43.690;27.956;2022-09-03T15:47:33;8.73;;;7.57;;
18695;SDS011;22617;43.690;27.956;2022-09-03T15:52:53;8.37;;;7.47;;
18695;SDS011;22617;43.690;27.956;2022-09-03T15:58:06;9.60;;;8.23;;
18695;SDS011;22617;43.690;27.956;2022-09-03T16:03:22;14.90;;;11.23;;
18695;SDS011;22617;43.690;27.956;2022-09-03T16:08:39;14.63;;;12.03;;
18695;SDS011;22617;43.690;27.956;2022-09-03T16:13:58;14.37;;;12.17;;
18695;SDS011;22617;43.690;27.956;2022-09-03T16:19:09;17.43;;;12.20;;
18695;SDS011;22617;43.690;27.956;2022-09-03T16:24:20;15.73;;;12.03;;
18695;SDS011;22617;43.690;27.956;2022-09-03T16:29:28;16.70;;;12.37;;
18695;SDS011;22617;43.690;27.956;2022-09-03T16:34:35;17.40;;;10.83;;
18695;SDS011;22617;43.690;27.956;2022-09-03T16:39:50;13.50;;;9.80;;
18695;SDS011;22617;43.690;27.956;2022-09-03T16:45:04;18.20;;;11.00;;
18695;SDS011;22617;43.690;27.956;2022-09-03T16:50:20;17.60;;;10.50;;
18695;SDS011;22617;43.690;27.956;2022-09-03T16:55:47;14.83;;;10.63;;
18695;SDS011;22617;43.690;27.956;2022-09-03T17:01:04;19.63;;;11.47;;
18695;SDS011;22617;43.690;27.956;2022-09-03T17:06:16;15.87;;;11.57;;
18695;SDS011;22617;43.690;27.956;2022-09-03T17:11:38;16.63;;;12.20;;
18695;SDS011;22617;43.690;27.956;2022-09-03T17:16:52;16.37;;;12.17;;
18695;SDS011;22617;43.690;27.956;2022-09-03T17:22:07;14.90;;;11.40;;
18695;SDS011;22617;43.690;27.956;2022-09-03T17:27:35;18.87;;;11.63;;
18695;SDS011;22617;43.690;27.956;2022-09-03T17:32:57;17.97;;;12.67;;
18695;SDS011;22617;43.690;27.956;2022-09-03T17:38:49;15.73;;;12.73;;
18695;SDS011;22617;43.690;27.956;2022-09-03T17:44:15;18.90;;;14.17;;
18695;SDS011;22617;43.690;27.956;2022-09-03T17:49:30;19.80;;;13.17;;
18695;SDS011;22617;43.690;27.956;2022-09-03T17:54:44;18.37;;;13.10;;
18695;SDS011;22617;43.690;27.956;2022-09-03T17:59:52;15.33;;;11.20;;
18695;SDS011;22617;43.690;27.956;2022-09-03T18:05:08;13.60;;;11.00;;
18695;SDS011;22617;43.690;27.956;2022-09-03T18:10:23;14.37;;;10.77;;
18695;SDS011;22617;43.690;27.956;2022-09-03T18:15:31;13.77;;;10.67;;
18695;SDS011;22617;43.690;27.956;2022-09-03T18:20:42;14.93;;;10.13;;
18695;SDS011;22617;43.690;27.956;2022-09-03T18:26:28;13.43;;;10.70;;
18695;SDS011;22617;43.690;27.956;2022-09-03T18:31:55;19.33;;;12.60;;
18695;SDS011;22617;43.690;27.956;2022-09-03T18:37:20;18.40;;;13.63;;
18695;SDS011;22617;43.690;27.956;2022-09-03T18:42:44;18.40;;;14.03;;
18695;SDS011;22617;43.690;27.956;2022-09-03T18:48:16;20.97;;;15.50;;
18695;SDS011;22617;43.690;27.956;2022-09-03T18:53:50;19.03;;;13.30;;
18695;SDS011;22617;43.690;27.956;2022-09-03T18:59:21;19.30;;;13.27;;
18695;SDS011;22617;43.690;27.956;2022-09-03T19:05:00;17.33;;;12.60;;
18695;SDS011;22617;43.690;27.956;2022-09-03T19:10:36;17.10;;;13.27;;
18695;SDS011;22617;43.690;27.956;2022-09-03T19:16:04;18.47;;;12.43;;
18695;SDS011;22617;43.690;27.956;2022-09-03T19:21:30;17.00;;;12.93;;
18695;SDS011;22617;43.690;27.956;2022-09-03T19:27:02;15.83;;;11.90;;
18695;SDS011;22617;43.690;27.956;2022-09-03T19:33:02;16.97;;;11.83;;
18695;SDS011;22617;43.690;27.956;2022-09-03T19:38:34;18.43;;;11.10;;
18695;SDS011;22617;43.690;27.956;2022-09-03T19:44:11;16.07;;;10.57;;
18695;SDS011;22617;43.690;27.956;2022-09-03T19:49:54;16.30;;;10.67;;
18695;SDS011;22617;43.690;27.956;2022-09-03T19:55:25;13.13;;;10.70;;
18695;SDS011;22617;43.690;27.956;2022-09-03T20:00:50;14.97;;;11.13;;
18695;SDS011;22617;43.690;27.956;2022-09-03T20:06:12;13.73;;;10.50;;
18695;SDS011;22617;43.690;27.956;2022-09-03T20:11:34;16.47;;;10.37;;
18695;SDS011;22617;43.690;27.956;2022-09-03T20:16:45;15.13;;;10.77;;
18695;SDS011;22617;43.690;27.956;2022-09-03T20:21:57;12.73;;;9.47;;
18695;SDS011;22617;43.690;27.956;2022-09-03T20:27:13;14.37;;;10.33;;
18695;SDS011;22617;43.690;27.956;2022-09-03T20:38:03;15.17;;;9.73;;
18695;SDS011;22617;43.690;27.956;2022-09-03T20:43:23;16.20;;;9.00;;
18695;SDS011;22617;43.690;27.956;2022-09-03T20:48:44;14.03;;;8.70;;
18695;SDS011;22617;43.690;27.956;2022-09-03T20:54:02;14.30;;;9.27;;
18695;SDS011;22617;43.690;27.956;2022-09-03T20:59:12;15.50;;;10.00;;
18695;SDS011;22617;43.690;27.956;2022-09-03T21:04:30;15.53;;;10.13;;
18695;SDS011;22617;43.690;27.956;2022-09-03T21:09:43;15.63;;;10.83;;
18695;SDS011;22617;43.690;27.956;2022-09-03T21:14:57;15.93;;;10.47;;
18695;SDS011;22617;43.690;27.956;2022-09-03T21:20:16;17.67;;;11.20;;
18695;SDS011;22617;43.690;27.956;2022-09-03T21:25:28;15.37;;;9.93;;
18695;SDS011;22617;43.690;27.956;2022-09-03T21:30:35;18.60;;;12.27;;
18695;SDS011;22617;43.690;27.956;2022-09-03T21:35:46;19.73;;;14.77;;
18695;SDS011;22617;43.690;27.956;2022-09-03T21:40:53;21.37;;;14.73;;
18695;SDS011;22617;43.690;27.956;2022-09-03T21:46:03;20.03;;;14.33;;
18695;SDS011;22617;43.690;27.956;2022-09-03T21:51:12;20.43;;;13.43;;
18695;SDS011;22617;43.690;27.956;2022-09-03T21:56:23;19.80;;;14.03;;
18695;SDS011;22617;43.690;27.956;2022-09-03T22:01:49;18.17;;;13.30;;
18695;SDS011;22617;43.690;27.956;2022-09-03T22:07:02;21.13;;;14.47;;
18695;SDS011;22617;43.690;27.956;2022-09-03T22:12:14;21.23;;;14.80;;
18695;SDS011;22617;43.690;27.956;2022-09-03T22:17:25;18.53;;;13.97;;
18695;SDS011;22617;43.690;27.956;2022-09-03T22:22:40;16.47;;;12.97;;
18695;SDS011;22617;43.690;27.956;2022-09-03T22:27:49;21.80;;;14.13;;
18695;SDS011;22617;43.690;27.956;2022-09-03T22:33:03;17.03;;;12.70;;
18695;SDS011;22617;43.690;27.956;2022-09-03T22:38:18;19.27;;;13.93;;
18695;SDS011;22617;43.690;27.956;2022-09-03T22:43:33;22.27;;;14.43;;
18695;SDS011;22617;43.690;27.956;2022-09-03T22:54:18;19.13;;;14.37;;
18695;SDS011;22617;43.690;27.956;2022-09-03T22:59:34;18.47;;;13.20;;
18695;SDS011;22617;43.690;27.956;2022-09-03T23:04:43;20.80;;;14.13;;
18695;SDS011;22617;43.690;27.956;2022-09-03T23:09:55;15.73;;;13.03;;
18695;SDS011;22617;43.690;27.956;2022-09-03T23:15:05;17.20;;;13.37;;
18695;SDS011;22617;43.690;27.956;2022-09-03T23:20:13;19.30;;;13.53;;
18695;SDS011;22617;43.690;27.956;2022-09-03T23:25:23;20.10;;;13.90;;
18695;SDS011;22617;43.690;27.956;2022-09-03T23:30:32;18.43;;;13.90;;
18695;SDS011;22617;43.690;27.956;2022-09-03T23:35:37;18.50;;;13.90;;
18695;SDS011;22617;43.690;27.956;2022-09-03T23:40:50;21.30;;;14.77;;
18695;SDS011;22617;43.690;27.956;2022-09-03T23:45:58;19.57;;;14.13;;
18695;SDS011;22617;43.690;27.956;2022-09-03T23:51:08;17.17;;;13.30;;
